Time;durP1;ratioP1;P1;durP2;ratioP2;P2;SDS_P1;SDS_P2;PMS_P1;PMS_P2;Temp;Humidity;BMP_temperature;BMP_pressure;BME280_temperature;BME280_humidity;BME280_pressure;Samples;Min_cycle;Max_cycle;Signal;HPM_P1;HPM_P2
2023/11/14 00:00:30;;;;;;;19.80;10.73;;;4.70;99.90;;;;;;4161611;28;20041;-58
2023/11/14 00:02:31;;;;;;;16.23;10.43;;;4.70;99.90;;;;;;4160943;28;20034;-59
2023/11/14 00:04:32;;;;;;;18.80;11.80;;;4.80;99.90;;;;;;4162231;28;20037;-60
2023/11/14 00:06:33;;;;;;;16.43;10.47;;;4.70;99.90;;;;;;4160755;28;20501;-60
2023/11/14 00:08:34;;;;;;;17.47;9.90;;;4.70;99.90;;;;;;4161943;28;20087;-60
2023/11/14 00:10:35;;;;;;;19.30;10.37;;;4.70;99.90;;;;;;4161015;28;20087;-59
2023/11/14 00:12:37;;;;;;;16.60;9.63;;;4.70;99.90;;;;;;4162188;28;20445;-58
2023/11/14 00:14:38;;;;;;;16.33;10.23;;;4.60;99.90;;;;;;4160948;28;20037;-59
2023/11/14 00:16:40;;;;;;;15.87;9.50;;;4.60;99.90;;;;;;4162165;28;20049;-60
2023/11/14 00:18:41;;;;;;;17.53;9.97;;;4.60;99.90;;;;;;4160530;28;20432;-59
2023/11/14 00:20:43;;;;;;;16.80;10.00;;;4.50;99.90;;;;;;4161452;28;20021;-59
2023/11/14 00:22:44;;;;;;;19.87;10.87;;;4.50;99.90;;;;;;4160650;28;20026;-56
2023/11/14 00:24:47;;;;;;;20.00;11.03;;;4.50;99.90;;;;;;4161339;28;20393;-60
2023/11/14 00:26:49;;;;;;;18.67;10.67;;;4.50;99.90;;;;;;4159698;28;20033;-62
2023/11/14 00:28:50;;;;;;;19.87;10.77;;;4.50;99.90;;;;;;4160555;28;20037;-58
2023/11/14 00:30:51;;;;;;;19.80;10.87;;;4.50;99.90;;;;;;4161164;28;20111;-59
2023/11/14 00:32:52;;;;;;;18.83;10.73;;;4.50;99.90;;;;;;4159824;28;20092;-59
2023/11/14 00:34:53;;;;;;;17.17;8.90;;;4.40;99.90;;;;;;4161022;28;20045;-59
2023/11/14 00:36:54;;;;;;;16.70;9.80;;;4.40;99.90;;;;;;4158928;28;20274;-59
2023/11/14 00:38:59;;;;;;;16.60;9.93;;;4.40;99.90;;;;;;4161318;28;20029;-60
2023/11/14 00:41:01;;;;;;;19.07;11.47;;;4.40;99.90;;;;;;4160835;28;20636;-60
2023/11/14 00:43:02;;;;;;;14.87;9.63;;;4.40;99.90;;;;;;4160449;28;20678;-59
2023/11/14 00:45:10;;;;;;;15.73;10.20;;;4.40;99.90;;;;;;4160149;28;20259;-59
2023/11/14 00:47:12;;;;;;;18.20;9.23;;;4.40;99.90;;;;;;4161337;28;20030;-58
2023/11/14 00:49:13;;;;;;;17.63;9.67;;;4.40;99.90;;;;;;4160121;28;20041;-60
2023/11/14 00:51:15;;;;;;;14.53;8.47;;;4.50;99.90;;;;;;4161227;28;20041;-59
2023/11/14 00:53:16;;;;;;;14.87;8.10;;;4.40;99.90;;;;;;4160424;28;20095;-58
2023/11/14 00:55:17;;;;;;;15.10;9.30;;;4.40;99.90;;;;;;4161325;28;20049;-57
2023/11/14 00:57:19;;;;;;;17.43;9.97;;;4.50;99.90;;;;;;4160119;28;20536;-62
2023/11/14 00:59:20;;;;;;;17.00;10.00;;;4.50;99.90;;;;;;4160797;28;20025;-61
2023/11/14 01:01:21;;;;;;;17.23;9.17;;;4.50;99.90;;;;;;4160730;28;20445;-61
2023/11/14 01:03:26;;;;;;;19.67;10.57;;;4.60;99.90;;;;;;4160137;28;20099;-58
2023/11/14 01:05:28;;;;;;;19.13;10.07;;;4.60;99.90;;;;;;4160838;28;20068;-59
2023/11/14 01:07:29;;;;;;;16.63;9.27;;;4.70;99.90;;;;;;4159980;28;20030;-60
2023/11/14 01:09:31;;;;;;;15.70;9.77;;;4.70;99.90;;;;;;4160926;28;20072;-57
2023/11/14 01:11:32;;;;;;;18.80;9.73;;;4.70;99.90;;;;;;4160447;28;20473;-60
2023/11/14 01:13:33;;;;;;;15.60;9.97;;;4.70;99.90;;;;;;4161136;28;20419;-59
2023/11/14 01:15:34;;;;;;;14.60;9.47;;;4.70;99.90;;;;;;4159907;28;20359;-59
2023/11/14 01:17:35;;;;;;;13.93;8.30;;;4.70;99.90;;;;;;4161258;28;20383;-59
2023/11/14 01:19:40;;;;;;;15.57;8.77;;;4.70;99.90;;;;;;4160044;28;20421;-60
2023/11/14 01:21:41;;;;;;;16.40;9.80;;;4.70;99.90;;;;;;4161120;28;20552;-58
2023/11/14 01:23:43;;;;;;;16.17;9.07;;;4.80;99.90;;;;;;4159896;28;20033;-59
2023/11/14 01:25:44;;;;;;;14.77;8.60;;;4.80;99.90;;;;;;4161363;28;20049;-60
2023/11/14 01:27:46;;;;;;;15.67;8.43;;;4.80;99.90;;;;;;4159315;28;20095;-59
2023/11/14 01:29:49;;;;;;;13.33;8.00;;;4.80;99.90;;;;;;4160690;28;20037;-60
2023/11/14 01:31:51;;;;;;;12.10;7.93;;;4.80;99.90;;;;;;4160202;28;20524;-59
2023/11/14 01:33:52;;;;;;;15.67;8.67;;;4.80;99.90;;;;;;4160071;28;20414;-59
2023/11/14 01:35:53;;;;;;;11.30;7.70;;;4.80;99.90;;;;;;4160026;28;20148;-60
2023/11/14 01:37:54;;;;;;;14.37;8.57;;;4.70;99.90;;;;;;4159877;28;20817;-60
2023/11/14 01:39:55;;;;;;;14.00;8.97;;;4.80;99.90;;;;;;4160731;28;20448;-60
2023/11/14 01:41:56;;;;;;;14.20;8.63;;;4.80;99.90;;;;;;4160236;28;20041;-59
2023/11/14 01:43:57;;;;;;;15.23;9.67;;;4.80;99.90;;;;;;4161046;28;20049;-60
2023/11/14 01:45:59;;;;;;;19.93;11.53;;;4.80;99.90;;;;;;4159755;28;20037;-58
2023/11/14 01:48:00;;;;;;;17.27;10.47;;;4.80;99.90;;;;;;4159959;28;20025;-60
2023/11/14 01:50:01;;;;;;;13.23;8.33;;;4.80;99.90;;;;;;4159154;28;20108;-60
2023/11/14 01:52:03;;;;;;;15.27;8.90;;;4.80;99.90;;;;;;4163398;28;20099;-60
2023/11/14 01:54:05;;;;;;;14.33;8.27;;;4.80;99.90;;;;;;4161905;28;20171;-58
2023/11/14 01:56:08;;;;;;;14.67;8.53;;;4.80;99.90;;;;;;4164063;28;20029;-60
2023/11/14 01:58:09;;;;;;;11.53;7.97;;;4.70;99.90;;;;;;4162615;28;20071;-59
2023/11/14 02:00:11;;;;;;;15.73;9.23;;;4.70;99.90;;;;;;4163605;28;20457;-60
2023/11/14 02:02:14;;;;;;;19.13;9.53;;;4.70;99.90;;;;;;4163305;28;20579;-60
2023/11/14 02:04:20;;;;;;;14.73;9.37;;;4.60;99.90;;;;;;4162427;28;20037;-58
2023/11/14 02:06:22;;;;;;;18.43;10.00;;;4.70;99.90;;;;;;4163098;28;20031;-59
2023/11/14 02:08:23;;;;;;;17.57;9.43;;;4.70;99.90;;;;;;4162861;28;20087;-60
2023/11/14 02:10:24;;;;;;;18.40;9.63;;;4.70;99.90;;;;;;4162791;28;20076;-60
2023/11/14 02:12:25;;;;;;;13.77;8.70;;;4.70;99.90;;;;;;4163281;28;20041;-57
2023/11/14 02:14:27;;;;;;;14.07;9.23;;;4.70;99.90;;;;;;4162991;28;20041;-57
2023/11/14 02:16:53;;;;;;;16.00;9.90;;;4.70;99.90;;;;;;4162627;28;20101;-60
2023/11/14 02:18:54;;;;;;;15.77;9.03;;;4.70;99.90;;;;;;4162857;28;20046;-59
2023/11/14 02:20:55;;;;;;;13.47;9.10;;;4.80;99.90;;;;;;4161897;28;20389;-58
2023/11/14 02:23:00;;;;;;;18.60;10.03;;;4.80;99.90;;;;;;4163524;28;20048;-59
2023/11/14 02:25:04;;;;;;;15.63;9.07;;;4.80;99.90;;;;;;4162627;28;20033;-60
2023/11/14 02:27:07;;;;;;;17.87;9.90;;;4.90;99.90;;;;;;4162939;28;20072;-59
2023/11/14 02:29:08;;;;;;;14.47;9.33;;;4.90;99.90;;;;;;4162251;28;20034;-60
2023/11/14 02:31:10;;;;;;;14.83;9.00;;;4.90;99.90;;;;;;4163575;28;20057;-60
2023/11/14 02:33:11;;;;;;;17.17;9.30;;;4.90;99.90;;;;;;4162500;28;20053;-59
2023/11/14 02:35:13;;;;;;;19.20;10.27;;;5.00;99.90;;;;;;4163159;28;20547;-59
2023/11/14 02:37:15;;;;;;;14.10;8.70;;;5.00;99.90;;;;;;4161501;28;20103;-59
2023/11/14 02:39:16;;;;;;;16.13;8.77;;;5.00;99.90;;;;;;4163107;28;20037;-60
2023/11/14 02:41:17;;;;;;;15.47;8.90;;;5.10;99.90;;;;;;4162752;28;20075;-60
2023/11/14 02:43:19;;;;;;;14.27;9.03;;;5.10;99.90;;;;;;4162943;28;20421;-59
2023/11/14 02:45:25;;;;;;;12.10;8.27;;;5.20;99.90;;;;;;4162629;28;20037;-60
2023/11/14 02:47:26;;;;;;;16.93;9.90;;;5.20;99.90;;;;;;4162962;28;20045;-60
2023/11/14 02:49:45;;;;;;;13.33;8.40;;;5.20;99.90;;;;;;4161386;28;20104;-59
2023/11/14 02:51:47;;;;;;;14.30;9.23;;;5.10;99.90;;;;;;4162825;28;20049;-60
2023/11/14 02:53:49;;;;;;;11.60;7.70;;;5.20;99.90;;;;;;4162465;28;20103;-61
2023/11/14 02:55:51;;;;;;;11.90;8.17;;;5.10;99.90;;;;;;4162259;28;20049;-61
2023/11/14 02:57:52;;;;;;;15.43;8.27;;;5.10;99.90;;;;;;4162742;28;20071;-59
2023/11/14 02:59:54;;;;;;;12.23;8.53;;;5.10;99.90;;;;;;4162154;28;20540;-61
2023/11/14 03:01:55;;;;;;;12.60;8.27;;;5.10;99.90;;;;;;4161672;28;20095;-61
2023/11/14 03:03:57;;;;;;;17.33;9.63;;;5.10;99.90;;;;;;4161689;28;20025;-61
2023/11/14 03:06:01;;;;;;;16.93;9.43;;;5.10;99.90;;;;;;4162953;28;20029;-58
2023/11/14 03:08:03;;;;;;;15.43;8.87;;;5.10;99.90;;;;;;4161748;28;20033;-59
2023/11/14 03:10:05;;;;;;;15.03;9.07;;;5.00;99.90;;;;;;4163053;28;20091;-59
2023/11/14 03:12:06;;;;;;;14.70;8.90;;;5.00;99.90;;;;;;4162186;28;20045;-59
2023/11/14 03:14:08;;;;;;;12.90;8.47;;;5.00;99.90;;;;;;4162654;28;20029;-60
2023/11/14 03:16:16;;;;;;;17.80;8.80;;;4.90;99.90;;;;;;4161763;28;20037;-58
2023/11/14 03:18:17;;;;;;;15.93;10.17;;;4.90;99.90;;;;;;4162841;28;20100;-60
2023/11/14 03:20:18;;;;;;;18.00;10.63;;;4.90;99.90;;;;;;4161463;28;20079;-60
2023/11/14 03:22:19;;;;;;;23.37;11.13;;;4.80;99.90;;;;;;4162375;28;20482;-59
2023/11/14 03:24:21;;;;;;;16.97;11.17;;;4.80;99.90;;;;;;4161400;28;20025;-60
2023/11/14 03:26:31;;;;;;;18.77;10.60;;;4.80;99.90;;;;;;4161176;28;20132;-59
2023/11/14 03:28:32;;;;;;;18.23;10.02;;;4.80;99.90;;;;;;4162115;28;20437;-60
2023/11/14 03:30:33;;;;;;;16.10;10.10;;;4.70;99.90;;;;;;4161097;28;20038;-59
2023/11/14 03:32:35;;;;;;;15.90;9.80;;;4.80;99.90;;;;;;4162037;28;20030;-60
2023/11/14 03:34:36;;;;;;;17.93;9.77;;;4.70;99.90;;;;;;4161239;28;20029;-60
2023/11/14 03:36:38;;;;;;;16.60;9.53;;;4.70;99.90;;;;;;4161622;28;20095;-60
2023/11/14 03:38:39;;;;;;;17.37;10.33;;;4.70;99.90;;;;;;4161053;28;20524;-60
2023/11/14 03:40:40;;;;;;;16.73;10.43;;;4.80;99.90;;;;;;4162121;28;20095;-59
2023/11/14 03:42:41;;;;;;;17.33;9.70;;;4.80;99.90;;;;;;4159871;28;20444;-59
2023/11/14 03:44:43;;;;;;;15.47;10.27;;;4.80;99.90;;;;;;4162118;28;20088;-60
2023/11/14 03:46:44;;;;;;;18.00;9.87;;;4.80;99.90;;;;;;4161014;28;20037;-60
2023/11/14 03:48:45;;;;;;;15.23;9.93;;;4.80;99.90;;;;;;4161667;28;20041;-60
2023/11/14 03:50:47;;;;;;;14.33;9.60;;;4.90;99.90;;;;;;4161238;28;20104;-60
2023/11/14 03:52:48;;;;;;;14.73;9.73;;;4.90;99.90;;;;;;4162498;28;20099;-60
2023/11/14 03:54:49;;;;;;;17.37;10.60;;;4.80;99.90;;;;;;4161209;28;20038;-60
2023/11/14 03:56:50;;;;;;;18.40;11.33;;;4.80;99.90;;;;;;4162048;28;20433;-61
2023/11/14 03:58:52;;;;;;;17.50;10.57;;;4.80;99.90;;;;;;4161350;28;20038;-61
2023/11/14 04:00:53;;;;;;;14.67;9.80;;;4.80;99.90;;;;;;4160245;28;20095;-56
2023/11/14 04:02:54;;;;;;;14.63;9.63;;;4.90;99.90;;;;;;4161668;28;20025;-58
2023/11/14 04:04:55;;;;;;;17.33;9.43;;;4.90;99.90;;;;;;4160715;28;20045;-60
2023/11/14 04:06:57;;;;;;;14.87;10.13;;;4.90;99.90;;;;;;4161671;28;20481;-59
2023/11/14 04:08:58;;;;;;;16.30;9.73;;;4.90;99.90;;;;;;4160796;28;20030;-59
2023/11/14 04:10:59;;;;;;;15.73;9.50;;;4.90;99.90;;;;;;4161646;28;20076;-61
2023/11/14 04:13:00;;;;;;;20.93;14.27;;;4.90;99.90;;;;;;4160515;28;20033;-57
2023/11/14 04:15:01;;;;;;;18.53;12.67;;;4.90;99.90;;;;;;4161836;28;20033;-58
2023/11/14 04:17:03;;;;;;;19.07;10.90;;;4.90;99.90;;;;;;4160615;28;20092;-59
2023/11/14 04:19:04;;;;;;;19.20;11.40;;;4.90;99.90;;;;;;4161831;28;20046;-59
2023/11/14 04:21:06;;;;;;;19.33;10.43;;;4.90;99.90;;;;;;4160714;28;20033;-60
2023/11/14 04:23:07;;;;;;;14.23;9.43;;;4.90;99.90;;;;;;4161554;28;20121;-57
2023/11/14 04:25:08;;;;;;;14.77;9.30;;;4.90;99.90;;;;;;4160611;28;20033;-58
2023/11/14 04:27:09;;;;;;;15.03;9.30;;;4.90;99.90;;;;;;4160924;28;20508;-61
2023/11/14 04:29:11;;;;;;;13.40;9.03;;;4.90;99.90;;;;;;4160698;28;20034;-59
2023/11/14 04:31:12;;;;;;;14.43;8.77;;;4.90;99.90;;;;;;4160596;28;20095;-58
2023/11/14 04:33:13;;;;;;;13.83;9.53;;;4.90;99.90;;;;;;4160885;28;20544;-58
2023/11/14 04:35:14;;;;;;;13.93;9.40;;;4.90;99.90;;;;;;4160555;28;20576;-59
2023/11/14 04:37:15;;;;;;;16.63;9.43;;;4.90;99.90;;;;;;4161374;28;20087;-59
2023/11/14 04:39:16;;;;;;;15.97;9.33;;;4.90;99.90;;;;;;4159968;28;20103;-60
2023/11/14 04:41:18;;;;;;;18.07;9.67;;;4.90;99.90;;;;;;4161854;28;20037;-59
2023/11/14 04:43:19;;;;;;;17.53;9.70;;;4.90;99.90;;;;;;4160585;28;20038;-59
2023/11/14 04:45:21;;;;;;;13.97;9.07;;;4.90;99.90;;;;;;4161140;28;20528;-58
2023/11/14 04:47:22;;;;;;;16.47;10.23;;;4.90;99.90;;;;;;4159067;28;20026;-61
2023/11/14 04:49:24;;;;;;;11.30;7.90;;;4.90;99.90;;;;;;4160954;28;20445;-60
2023/11/14 04:51:25;;;;;;;19.17;8.90;;;4.90;99.90;;;;;;4158711;28;20151;-60
2023/11/14 04:53:26;;;;;;;16.90;9.70;;;4.90;99.90;;;;;;4160693;28;20075;-60
2023/11/14 04:55:27;;;;;;;17.43;9.40;;;4.90;99.90;;;;;;4160215;28;20767;-58
2023/11/14 04:57:28;;;;;;;15.27;10.13;;;4.90;99.90;;;;;;4160039;28;20037;-60
2023/11/14 04:59:29;;;;;;;13.97;8.83;;;4.90;99.90;;;;;;4160138;28;20038;-59
2023/11/14 05:01:30;;;;;;;16.07;8.53;;;4.90;99.90;;;;;;4160417;28;20083;-61
2023/11/14 05:03:31;;;;;;;16.37;9.00;;;4.90;99.90;;;;;;4160077;28;20091;-59
2023/11/14 05:05:34;;;;;;;15.83;9.30;;;4.90;99.90;;;;;;4160179;28;20053;-60
2023/11/14 05:07:35;;;;;;;14.23;8.73;;;5.00;99.90;;;;;;4160639;28;20026;-57
2023/11/14 05:09:38;;;;;;;13.30;8.70;;;5.00;99.90;;;;;;4159700;28;20359;-60
2023/11/14 05:11:39;;;;;;;20.83;10.83;;;5.00;99.90;;;;;;4161106;28;20095;-61
2023/11/14 05:13:40;;;;;;;15.33;9.90;;;5.00;99.90;;;;;;4158694;28;20441;-60
2023/11/14 05:15:42;;;;;;;15.23;10.10;;;5.00;99.90;;;;;;4160705;28;20037;-59
2023/11/14 05:17:43;;;;;;;18.37;11.33;;;5.00;99.90;;;;;;4159080;28;20429;-59
2023/11/14 05:19:44;;;;;;;19.37;11.93;;;5.00;99.90;;;;;;4159490;28;20131;-60
2023/11/14 05:21:45;;;;;;;17.47;9.77;;;5.00;99.90;;;;;;4159445;28;20083;-60
2023/11/14 05:23:46;;;;;;;21.10;10.60;;;5.00;99.90;;;;;;4160714;28;20118;-61
2023/11/14 05:25:47;;;;;;;15.77;9.27;;;5.10;99.90;;;;;;4161341;28;20079;-60
2023/11/14 05:27:49;;;;;;;14.80;9.47;;;5.00;99.90;;;;;;4163231;28;20053;-63
2023/11/14 05:29:51;;;;;;;12.33;8.53;;;5.00;99.90;;;;;;4162348;28;20029;-61
2023/11/14 05:31:52;;;;;;;27.33;9.43;;;5.00;99.90;;;;;;4156170;28;20100;-59
2023/11/14 05:33:53;;;;;;;15.80;10.33;;;5.00;99.90;;;;;;4162773;28;20474;-61
2023/11/14 05:35:54;;;;;;;19.13;9.83;;;5.00;99.90;;;;;;4161895;28;20091;-63
2023/11/14 05:37:55;;;;;;;15.00;8.37;;;5.00;99.90;;;;;;4162880;28;20103;-61
2023/11/14 05:39:56;;;;;;;16.93;9.67;;;5.00;99.90;;;;;;4160486;28;20038;-60
2023/11/14 05:41:57;;;;;;;16.80;9.83;;;5.00;99.90;;;;;;4163748;28;20037;-60
2023/11/14 05:43:59;;;;;;;16.30;9.13;;;5.00;99.90;;;;;;4161432;28;20331;-63
2023/11/14 05:46:00;;;;;;;18.20;9.53;;;5.10;99.90;;;;;;4163284;28;20170;-60
2023/11/14 05:48:04;;;;;;;15.40;8.90;;;5.20;99.90;;;;;;4161919;28;20446;-61
2023/11/14 05:50:06;;;;;;;18.10;9.07;;;5.20;99.90;;;;;;4162708;28;20119;-62
2023/11/14 05:52:07;;;;;;;11.90;8.77;;;5.20;99.90;;;;;;4157038;28;20049;-61
2023/11/14 05:54:09;;;;;;;14.87;9.40;;;5.20;99.90;;;;;;4160325;28;20049;-62
2023/11/14 05:56:10;;;;;;;14.17;8.83;;;5.30;99.90;;;;;;4162734;28;20075;-62
2023/11/14 05:58:11;;;;;;;12.80;8.40;;;5.30;99.90;;;;;;4163703;28;20045;-63
2023/11/14 06:00:14;;;;;;;14.70;8.37;;;5.40;99.90;;;;;;4162558;28;20062;-61
2023/11/14 06:02:15;;;;;;;13.20;8.83;;;5.40;99.90;;;;;;4162943;28;20092;-62
2023/11/14 06:04:16;;;;;;;16.40;9.43;;;5.40;99.90;;;;;;4162062;28;20099;-61
2023/11/14 06:06:18;;;;;;;13.67;9.40;;;5.40;99.90;;;;;;4163205;28;20041;-62
2023/11/14 06:08:19;;;;;;;14.17;8.30;;;5.40;99.90;;;;;;4162595;28;20795;-62
2023/11/14 06:10:20;;;;;;;13.40;9.20;;;5.50;99.90;;;;;;4161140;28;20103;-64
2023/11/14 06:12:21;;;;;;;13.70;8.67;;;5.50;99.90;;;;;;4163710;28;20053;-61
2023/11/14 06:14:22;;;;;;;12.77;8.90;;;5.50;99.90;;;;;;4161835;28;20115;-62
2023/11/14 06:16:23;;;;;;;14.00;9.03;;;5.50;99.90;;;;;;4163632;28;20099;-64
2023/11/14 06:18:27;;;;;;;12.07;8.23;;;5.50;99.90;;;;;;4162214;28;20033;-61
2023/11/14 06:20:29;;;;;;;15.43;9.50;;;5.50;99.90;;;;;;4163234;28;20037;-63
2023/11/14 06:22:32;;;;;;;16.50;9.00;;;5.50;99.90;;;;;;4161944;28;20088;-62
2023/11/14 06:24:33;;;;;;;15.53;9.63;;;5.60;99.90;;;;;;4163334;28;20473;-62
2023/11/14 06:26:34;;;;;;;14.37;9.17;;;5.60;99.90;;;;;;4162079;28;20029;-62
2023/11/14 06:28:35;;;;;;;15.27;9.23;;;5.60;99.90;;;;;;4163013;28;20033;-62
2023/11/14 06:30:38;;;;;;;18.30;10.77;;;5.70;99.90;;;;;;4161818;28;20068;-61
2023/11/14 06:32:39;;;;;;;15.57;10.00;;;5.70;99.90;;;;;;4162727;28;20034;-61
2023/11/14 06:34:40;;;;;;;16.97;10.10;;;5.80;99.90;;;;;;4162368;28;20437;-63
2023/11/14 06:36:41;;;;;;;13.50;8.97;;;5.90;99.90;;;;;;4162063;28;20100;-62
2023/11/14 06:38:43;;;;;;;16.47;9.67;;;5.90;99.90;;;;;;4162499;28;20025;-62
2023/11/14 06:40:45;;;;;;;15.20;8.60;;;5.90;99.90;;;;;;4161932;28;20083;-61
2023/11/14 06:42:46;;;;;;;14.77;9.33;;;5.90;99.90;;;;;;4162694;28;20087;-60
2023/11/14 06:44:47;;;;;;;16.40;9.00;;;5.90;99.90;;;;;;4161724;28;20434;-61
2023/11/14 06:46:48;;;;;;;14.40;8.97;;;5.90;99.90;;;;;;4162872;28;20037;-61
2023/11/14 06:48:49;;;;;;;13.47;8.87;;;6.00;99.90;;;;;;4161645;28;20033;-61
2023/11/14 06:50:50;;;;;;;19.37;10.07;;;6.00;99.90;;;;;;4162765;28;20551;-61
2023/11/14 06:52:52;;;;;;;18.67;10.00;;;6.10;99.90;;;;;;4161779;28;20127;-61
2023/11/14 06:54:53;;;;;;;13.77;9.53;;;6.10;99.90;;;;;;4163170;28;20034;-61
2023/11/14 06:56:54;;;;;;;15.27;9.33;;;6.20;99.90;;;;;;4161647;28;20021;-62
2023/11/14 06:58:55;;;;;;;14.40;8.30;;;6.30;99.90;;;;;;4162733;28;20122;-62
2023/11/14 07:00:56;;;;;;;14.10;9.37;;;6.40;99.90;;;;;;4161455;28;20041;-61
2023/11/14 07:02:57;;;;;;;12.37;8.83;;;6.70;99.90;;;;;;4162335;28;20099;-61
2023/11/14 07:04:59;;;;;;;14.60;9.13;;;7.10;99.90;;;;;;4161258;28;20049;-58
2023/11/14 07:07:00;;;;;;;18.43;9.50;;;7.60;99.90;;;;;;4161891;28;20056;-61
2023/11/14 07:09:01;;;;;;;15.40;9.10;;;7.90;99.90;;;;;;4161906;28;20551;-61
2023/11/14 07:11:02;;;;;;;15.83;9.60;;;8.30;99.90;;;;;;4161134;28;20041;-62
2023/11/14 07:13:04;;;;;;;16.93;10.10;;;8.70;99.90;;;;;;4162204;28;20900;-62
2023/11/14 07:15:06;;;;;;;15.63;10.17;;;9.10;99.90;;;;;;4161315;28;20466;-62
2023/11/14 07:17:08;;;;;;;16.30;9.63;;;9.40;99.90;;;;;;4162371;28;20428;-62
2023/11/14 07:19:09;;;;;;;17.63;9.63;;;9.40;99.90;;;;;;4161099;28;20029;-61
2023/11/14 07:21:10;;;;;;;17.00;9.47;;;9.20;99.90;;;;;;4162044;28;20078;-59
2023/11/14 07:23:11;;;;;;;20.50;10.07;;;9.10;99.90;;;;;;4160936;28;20029;-61
2023/11/14 07:25:12;;;;;;;24.07;10.43;;;8.90;99.90;;;;;;4162699;28;20034;-62
2023/11/14 07:27:15;;;;;;;15.50;10.30;;;8.70;99.90;;;;;;4160986;28;20029;-61
2023/11/14 07:29:19;;;;;;;16.37;10.93;;;8.80;99.90;;;;;;4161993;28;20091;-61
2023/11/14 07:31:20;;;;;;;13.43;9.53;;;8.80;99.90;;;;;;4160868;28;20014;-63
2023/11/14 07:33:21;;;;;;;13.37;9.53;;;8.90;99.90;;;;;;4160432;28;20083;-61
2023/11/14 07:35:23;;;;;;;13.53;9.70;;;8.90;99.90;;;;;;4159700;28;20041;-60
2023/11/14 07:37:24;;;;;;;14.27;9.00;;;8.80;99.90;;;;;;4161667;28;20482;-61
2023/11/14 07:39:27;;;;;;;15.63;9.60;;;8.80;99.90;;;;;;4161074;28;20091;-60
2023/11/14 07:41:28;;;;;;;15.70;9.13;;;8.70;99.90;;;;;;4161217;28;20030;-61
2023/11/14 07:43:29;;;;;;;11.57;8.53;;;8.50;99.90;;;;;;4161663;28;20037;-61
2023/11/14 07:45:30;;;;;;;13.20;8.00;;;8.50;99.90;;;;;;4160810;28;20045;-60
2023/11/14 07:47:31;;;;;;;13.57;8.60;;;8.50;99.90;;;;;;4161157;28;20030;-60
2023/11/14 07:49:33;;;;;;;16.43;8.60;;;8.40;99.90;;;;;;4160674;28;20025;-64
2023/11/14 07:51:34;;;;;;;13.77;8.40;;;8.20;99.90;;;;;;4161829;28;20033;-61
2023/11/14 07:53:35;;;;;;;13.13;8.60;;;8.20;99.90;;;;;;4160606;28;20477;-61
2023/11/14 07:55:37;;;;;;;19.27;8.93;;;8.10;99.90;;;;;;4162255;28;20038;-60
2023/11/14 07:57:38;;;;;;;15.57;8.83;;;8.10;99.90;;;;;;4160634;28;20393;-61
2023/11/14 07:59:39;;;;;;;14.40;8.93;;;7.90;99.90;;;;;;4161519;28;20041;-61
2023/11/14 08:01:42;;;;;;;14.13;9.10;;;7.90;99.90;;;;;;4160468;28;20490;-61
2023/11/14 08:03:44;;;;;;;13.20;8.50;;;7.80;99.90;;;;;;4161367;28;20079;-61
2023/11/14 08:05:45;;;;;;;12.50;8.73;;;7.80;99.90;;;;;;4160661;28;20074;-60
2023/11/14 08:07:47;;;;;;;12.87;8.27;;;7.70;99.90;;;;;;4161281;28;20091;-60
2023/11/14 08:09:48;;;;;;;12.27;8.60;;;7.70;99.90;;;;;;4160976;28;20021;-62
2023/11/14 08:11:50;;;;;;;13.63;8.57;;;7.70;99.90;;;;;;4160696;28;20099;-62
2023/11/14 08:13:51;;;;;;;16.20;9.70;;;7.60;99.90;;;;;;4160966;28;20502;-61
2023/11/14 08:15:52;;;;;;;15.17;9.20;;;7.60;99.90;;;;;;4160429;28;20079;-62
2023/11/14 08:17:54;;;;;;;15.20;9.93;;;7.50;99.90;;;;;;4161103;28;20053;-62
2023/11/14 08:19:55;;;;;;;14.47;9.70;;;7.50;99.90;;;;;;4160167;28;20029;-62
2023/11/14 08:22:03;;;;;;;14.67;9.83;;;7.60;99.90;;;;;;4143390;28;20100;-62
2023/11/14 08:24:04;;;;;;;13.73;9.77;;;7.60;99.90;;;;;;4160277;28;20025;-60
2023/11/14 08:26:05;;;;;;;18.33;9.87;;;7.70;99.90;;;;;;4161682;28;20481;-61
2023/11/14 08:28:07;;;;;;;14.00;9.70;;;7.80;99.90;;;;;;4160042;28;20474;-60
2023/11/14 08:30:10;;;;;;;15.63;10.20;;;7.90;99.90;;;;;;4161200;28;20038;-61
2023/11/14 08:32:15;;;;;;;18.77;10.70;;;8.00;99.90;;;;;;4160002;28;20034;-63
2023/11/14 08:34:16;;;;;;;16.67;9.87;;;8.00;99.90;;;;;;4161115;28;20037;-61
2023/11/14 08:36:17;;;;;;;15.40;9.80;;;7.90;99.90;;;;;;4159899;28;20412;-61
2023/11/14 08:38:19;;;;;;;20.17;10.47;;;7.80;99.90;;;;;;4161226;28;20079;-58
2023/11/14 08:40:21;;;;;;;13.87;9.17;;;7.90;99.90;;;;;;4160025;28;20191;-61
2023/11/14 08:42:22;;;;;;;19.20;10.27;;;7.90;99.90;;;;;;4160709;28;20017;-62
2023/11/14 08:44:24;;;;;;;21.50;11.43;;;7.90;99.90;;;;;;4160557;28;20041;-61
2023/11/14 08:46:25;;;;;;;18.07;10.20;;;8.00;99.90;;;;;;4160666;28;20052;-60
2023/11/14 08:48:26;;;;;;;16.47;10.33;;;7.90;99.90;;;;;;4160879;28;20382;-61
2023/11/14 08:50:27;;;;;;;20.23;11.87;;;8.00;99.90;;;;;;4159630;28;20079;-62
2023/11/14 08:52:28;;;;;;;19.70;11.90;;;8.00;99.90;;;;;;4160847;28;20087;-62
2023/11/14 08:54:31;;;;;;;22.07;12.17;;;8.00;99.90;;;;;;4160358;28;20494;-61
2023/11/14 08:56:33;;;;;;;24.87;13.90;;;8.00;99.90;;;;;;4161385;28;20045;-60
2023/11/14 08:58:35;;;;;;;23.93;12.83;;;8.00;99.90;;;;;;4159984;28;20086;-62
2023/11/14 09:00:37;;;;;;;23.53;12.43;;;8.00;99.90;;;;;;4160022;28;20030;-60
2023/11/14 09:02:38;;;;;;;27.43;14.40;;;8.10;99.90;;;;;;4159821;28;20034;-61
2023/11/14 09:04:40;;;;;;;21.37;11.10;;;8.20;99.90;;;;;;4160625;28;20083;-61
2023/11/14 09:06:41;;;;;;;17.50;10.00;;;8.20;99.90;;;;;;4159565;28;20460;-61
2023/11/14 09:08:44;;;;;;;16.77;10.67;;;8.20;99.90;;;;;;4161054;28;20041;-62
2023/11/14 09:10:45;;;;;;;21.20;11.90;;;8.20;99.90;;;;;;4160369;28;20485;-61
2023/11/14 09:12:48;;;;;;;15.83;9.93;;;8.20;99.90;;;;;;4160389;28;20049;-61
2023/11/14 09:14:49;;;;;;;20.87;10.90;;;8.10;99.90;;;;;;4159704;28;20064;-61
2023/11/14 09:16:51;;;;;;;15.67;9.90;;;8.10;99.90;;;;;;4159990;28;20103;-61
2023/11/14 09:18:56;;;;;;;17.97;10.50;;;8.00;99.90;;;;;;4159901;28;20141;-61
2023/11/14 09:20:57;;;;;;;15.60;11.10;;;8.00;99.90;;;;;;4159698;28;20071;-62
2023/11/14 09:22:58;;;;;;;18.77;11.80;;;8.00;99.90;;;;;;4160264;28;20025;-61
2023/11/14 09:24:59;;;;;;;20.20;11.63;;;8.10;99.90;;;;;;4160072;28;20095;-62
2023/11/14 09:27:01;;;;;;;21.10;12.00;;;8.10;99.90;;;;;;4160672;28;20328;-61
2023/11/14 09:29:02;;;;;;;18.63;11.50;;;8.10;99.90;;;;;;4159059;28;20127;-60
2023/11/14 09:31:04;;;;;;;18.77;11.50;;;8.20;99.90;;;;;;4160378;28;20033;-61
2023/11/14 09:33:06;;;;;;;17.30;11.40;;;8.40;99.90;;;;;;4159067;28;20041;-62
2023/11/14 09:35:10;;;;;;;18.60;11.93;;;8.40;99.90;;;;;;4160142;28;20093;-61
2023/11/14 09:37:11;;;;;;;17.97;11.60;;;8.50;99.90;;;;;;4157295;28;20556;-61
2023/11/14 09:39:13;;;;;;;22.60;11.73;;;8.60;99.90;;;;;;4160701;28;20072;-61
2023/11/14 09:41:15;;;;;;;24.53;12.63;;;8.60;99.90;;;;;;4159279;28;20428;-62
2023/11/14 09:43:23;;;;;;;18.50;11.60;;;8.70;99.90;;;;;;4160747;28;20060;-61
2023/11/14 09:45:24;;;;;;;17.50;11.57;;;8.80;99.90;;;;;;4157993;28;20130;-61
2023/11/14 09:47:26;;;;;;;18.80;11.87;;;8.90;99.90;;;;;;4159890;28;20033;-62
2023/11/14 09:49:27;;;;;;;24.13;13.00;;;8.90;99.90;;;;;;4159311;28;20026;-60
2023/11/14 09:51:31;;;;;;;21.30;13.33;;;8.80;99.90;;;;;;4160041;28;20068;-60
2023/11/14 09:53:32;;;;;;;20.97;11.67;;;8.90;99.90;;;;;;4159678;28;20079;-61
2023/11/14 09:55:34;;;;;;;20.90;10.97;;;8.90;99.90;;;;;;4160267;28;20068;-61
2023/11/14 09:57:36;;;;;;;19.60;10.40;;;8.90;99.90;;;;;;4160003;28;20034;-61
2023/11/14 09:59:41;;;;;;;20.40;12.27;;;9.00;99.90;;;;;;4158988;28;20103;-62
2023/11/14 10:01:43;;;;;;;17.97;9.93;;;9.00;99.90;;;;;;4160075;28;20680;-62
2023/11/14 10:03:45;;;;;;;17.33;11.10;;;9.10;99.90;;;;;;4158805;28;20420;-61
2023/11/14 10:05:47;;;;;;;19.13;11.13;;;9.20;99.90;;;;;;4160183;28;20037;-62
2023/11/14 10:07:51;;;;;;;14.07;10.17;;;9.30;99.90;;;;;;4158937;28;20029;-59
2023/11/14 10:09:54;;;;;;;19.27;11.13;;;9.40;99.90;;;;;;4160331;28;20486;-62
2023/11/14 10:11:57;;;;;;;20.57;11.17;;;9.50;99.90;;;;;;4161248;28;20041;-60
2023/11/14 10:14:03;;;;;;;20.77;11.97;;;9.50;99.90;;;;;;4163133;28;20021;-63
2023/11/14 10:16:21;;;;;;;18.67;12.33;;;9.60;99.90;;;;;;4162109;28;20021;-62
2023/11/14 10:18:31;;;;;;;17.20;12.23;;;9.70;99.90;;;;;;4163359;28;20382;-62
2023/11/14 10:20:39;;;;;;;23.40;13.98;;;9.70;99.90;;;;;;4162180;28;20064;-62
2023/11/14 10:22:54;;;;;;;29.40;15.03;;;9.70;99.90;;;;;;4162814;28;20037;-62
2023/11/14 10:24:56;;;;;;;21.97;13.97;;;9.70;99.90;;;;;;4162464;28;20367;-61
2023/11/14 10:26:59;;;;;;;21.83;13.80;;;9.80;99.90;;;;;;4163031;28;20041;-61
2023/11/14 10:29:02;;;;;;;21.30;12.30;;;9.90;99.90;;;;;;4161355;28;20041;-61
2023/11/14 10:31:03;;;;;;;18.17;12.30;;;9.80;99.90;;;;;;4163050;28;20548;-60